createdAt,value
2023-04-28T00:02:23.345Z,99235.80
2023-04-28T00:05:21.566Z,99239.20
2023-04-28T00:08:21.746Z,99230.20
2023-04-28T00:11:19.350Z,99223.80
2023-04-28T00:14:18.426Z,99218.40
2023-04-28T00:17:16.198Z,99213.40
2023-04-28T00:20:14.217Z,99221.00
2023-04-28T00:23:11.689Z,99223.80
2023-04-28T00:26:09.470Z,99217.00
2023-04-28T00:29:06.933Z,99221.20
2023-04-28T00:32:04.617Z,99217.40
2023-04-28T00:35:02.367Z,99217.20
2023-04-28T00:37:59.865Z,99215.00
2023-04-28T00:40:57.794Z,99215.60
2023-04-28T00:43:55.276Z,99209.60
2023-04-28T00:46:52.910Z,99201.40
2023-04-28T00:49:50.409Z,99204.00
2023-04-28T00:52:48.034Z,99199.80
2023-04-28T00:55:45.813Z,99198.60
2023-04-28T00:58:43.276Z,99200.40
2023-04-28T01:01:41.225Z,99199.40
2023-04-28T01:04:38.854Z,99201.80
2023-04-28T01:07:37.471Z,99200.00
2023-04-28T01:10:34.869Z,99194.00
2023-04-28T01:13:32.513Z,99192.00
2023-04-28T01:16:30.469Z,99196.00
2023-04-28T01:19:28.360Z,99197.40
2023-04-28T01:22:26.113Z,99195.40
2023-04-28T01:25:23.553Z,99184.80
2023-04-28T01:28:21.261Z,99184.80
2023-04-28T01:31:18.657Z,99179.80
2023-04-28T01:34:16.568Z,99176.40
2023-04-28T01:37:14.546Z,99177.00
2023-04-28T01:40:12.010Z,99177.60
2023-04-28T01:43:09.624Z,99180.60
2023-04-28T01:46:07.133Z,99176.80
2023-04-28T01:49:05.198Z,99177.60
2023-04-28T01:52:02.636Z,99176.40
2023-04-28T01:55:00.448Z,99171.20
2023-04-28T01:57:58.585Z,99167.60
2023-04-28T02:00:56.627Z,99167.40
2023-04-28T02:03:55.781Z,99173.20
2023-04-28T02:06:53.484Z,99174.60
2023-04-28T02:09:51.313Z,99176.40
2023-04-28T02:12:48.749Z,99182.20
2023-04-28T02:15:46.753Z,99174.60
2023-04-28T02:18:44.187Z,99171.20
2023-04-28T02:21:41.801Z,99172.00
2023-04-28T02:24:39.268Z,99166.60
2023-04-28T02:27:36.928Z,99166.40
2023-04-28T02:30:34.582Z,99166.00
2023-04-28T02:33:32.034Z,99161.20
2023-04-28T02:36:29.669Z,99165.00
2023-04-28T02:39:29.925Z,99168.80
2023-04-28T02:42:27.552Z,99164.40
2023-04-28T02:45:24.933Z,99160.20
2023-04-28T02:48:22.685Z,99161.20
2023-04-28T02:51:20.293Z,99161.00
2023-04-28T02:54:27.196Z,99165.40
2023-04-28T02:57:24.887Z,99165.00
2023-04-28T03:00:22.258Z,99165.60
2023-04-28T03:03:20.074Z,99161.20
2023-04-28T03:06:17.892Z,99153.60
2023-04-28T03:09:15.325Z,99150.40
2023-04-28T03:12:13.171Z,99145.80
2023-04-28T03:15:12.739Z,99141.40
2023-04-28T03:18:11.740Z,99135.40
2023-04-28T03:21:09.251Z,99131.60
2023-04-28T03:24:07.247Z,99132.00
2023-04-28T03:27:06.263Z,99131.00
2023-04-28T03:30:04.060Z,99127.60
2023-04-28T03:33:01.706Z,99123.20
2023-04-28T03:35:59.148Z,99129.20
2023-04-28T03:38:56.825Z,99129.80
2023-04-28T03:41:54.260Z,99131.00
2023-04-28T03:44:51.831Z,99120.60
2023-04-28T03:47:49.572Z,99122.80
2023-04-28T03:50:46.969Z,99132.60
2023-04-28T03:53:44.667Z,99134.80
2023-04-28T03:56:42.108Z,99137.40
2023-04-28T03:59:39.647Z,99136.40
2023-04-28T04:02:37.205Z,99130.00
2023-04-28T04:05:34.975Z,99127.80
2023-04-28T04:08:33.231Z,99128.00
2023-04-28T04:11:30.646Z,99125.20
2023-04-28T04:14:28.684Z,99127.60
2023-04-28T04:17:26.538Z,99126.60
2023-04-28T04:20:24.185Z,99130.80
2023-04-28T04:23:21.572Z,99122.40
2023-04-28T04:26:19.252Z,99129.40
2023-04-28T04:29:16.957Z,99132.60
2023-04-28T04:32:14.379Z,99134.00
2023-04-28T04:35:12.124Z,99134.40
2023-04-28T04:38:09.527Z,99124.20
2023-04-28T04:41:07.371Z,99121.60
2023-04-28T04:44:04.800Z,99115.60
2023-04-28T04:47:02.998Z,99114.40
2023-04-28T04:50:00.798Z,99112.80
2023-04-28T04:52:58.475Z,99107.60
2023-04-28T04:55:56.821Z,99104.60
2023-04-28T04:58:54.280Z,99105.20
2023-04-28T05:01:52.111Z,99105.00
2023-04-28T05:04:49.907Z,99110.20
2023-04-28T05:07:47.645Z,99114.60
2023-04-28T05:10:45.557Z,99113.40
2023-04-28T05:13:42.945Z,99109.40
2023-04-28T05:16:40.551Z,99110.80
2023-04-28T05:19:37.984Z,99110.20
2023-04-28T05:22:35.813Z,99103.60
2023-04-28T05:25:33.568Z,99105.00
2023-04-28T05:28:31.164Z,99101.40
2023-04-28T05:31:28.780Z,99108.40
2023-04-28T05:34:26.608Z,99102.20
2023-04-28T05:37:24.336Z,99102.40
2023-04-28T05:40:22.329Z,99102.20
2023-04-28T05:43:19.989Z,99099.80
2023-04-28T05:46:28.912Z,99101.80
2023-04-28T05:49:27.919Z,99102.40
2023-04-28T05:52:25.490Z,99104.40
2023-04-28T05:55:22.893Z,99097.80
2023-04-28T05:58:20.705Z,99103.40
2023-04-28T06:01:18.125Z,99098.60
2023-04-28T06:04:16.111Z,99094.00
2023-04-28T06:07:14.116Z,99104.00
2023-04-28T06:10:11.549Z,99102.20
2023-04-28T06:13:09.516Z,99104.80
2023-04-28T06:16:07.700Z,99100.60
2023-04-28T06:19:05.442Z,99103.80
2023-04-28T06:22:02.889Z,99096.80
2023-04-28T06:25:01.262Z,99093.00
2023-04-28T06:27:58.823Z,99082.00
2023-04-28T06:30:56.315Z,99087.40
2023-04-28T06:33:53.984Z,99092.00
2023-04-28T06:36:51.425Z,99094.60
2023-04-28T06:39:48.990Z,99093.20
2023-04-28T06:42:46.377Z,99092.20
2023-04-28T06:45:44.083Z,99091.80
2023-04-28T06:48:42.122Z,99081.80
2023-04-28T06:51:39.541Z,99078.40
2023-04-28T06:54:38.970Z,99072.20
2023-04-28T06:57:37.899Z,99065.00
2023-04-28T07:00:35.666Z,99066.20
2023-04-28T07:03:33.150Z,99060.60
2023-04-28T07:06:32.307Z,99055.80
2023-04-28T07:09:31.481Z,99058.40
2023-04-28T07:12:29.061Z,99055.00
2023-04-28T07:15:27.025Z,99055.00
2023-04-28T07:18:24.467Z,99056.00
2023-04-28T07:21:22.408Z,99048.00
2023-04-28T07:24:19.799Z,99041.40
2023-04-28T07:27:17.610Z,99046.20
2023-04-28T07:30:26.468Z,99033.60
2023-04-28T07:33:25.814Z,99038.80
2023-04-28T07:36:23.606Z,99035.40
2023-04-28T07:39:21.015Z,99035.00
2023-04-28T07:42:19.406Z,99030.40
2023-04-28T07:45:16.965Z,99032.20
2023-04-28T07:48:14.710Z,99027.00
2023-04-28T07:51:12.424Z,99037.60
2023-04-28T07:54:09.820Z,99046.40
2023-04-28T07:57:07.571Z,99051.20
2023-04-28T08:00:05.662Z,99050.20
2023-04-28T08:03:03.577Z,99046.00
2023-04-28T08:06:01.332Z,99049.60
2023-04-28T08:08:59.242Z,99047.40
2023-04-28T08:11:56.864Z,99046.80
2023-04-28T08:14:54.313Z,99038.20
2023-04-28T08:17:52.085Z,99037.40
2023-04-28T08:20:49.518Z,99031.40
2023-04-28T08:23:47.424Z,99031.20
2023-04-28T08:26:44.826Z,99033.20
2023-04-28T08:29:42.577Z,99028.40
2023-04-28T08:32:40.060Z,99023.00
2023-04-28T08:35:37.833Z,99017.80
2023-04-28T08:38:35.554Z,99011.60
2023-04-28T08:41:33.141Z,99004.20
2023-04-28T08:44:30.773Z,99005.00
2023-04-28T08:47:28.344Z,99001.80
2023-04-28T08:50:26.230Z,98997.40
2023-04-28T08:53:23.698Z,98999.40
2023-04-28T08:56:21.372Z,98988.20
2023-04-28T08:59:19.328Z,98985.20
2023-04-28T09:02:16.906Z,98986.20
2023-04-28T09:05:15.148Z,98988.00
2023-04-28T09:08:12.902Z,98987.20
2023-04-28T09:11:10.617Z,98985.60
2023-04-28T09:14:08.091Z,98981.20
2023-04-28T09:17:05.830Z,98978.60
2023-04-28T09:20:04.698Z,98975.00
2023-04-28T09:23:02.215Z,98975.60
2023-04-28T09:26:00.366Z,98978.00
2023-04-28T09:28:57.812Z,98969.20
2023-04-28T09:31:55.560Z,98968.00
2023-04-28T09:34:54.261Z,98963.40
2023-04-28T09:37:51.858Z,98958.60
2023-04-28T09:40:49.510Z,98950.00
2023-04-28T09:43:46.931Z,98945.60
2023-04-28T09:46:44.942Z,98937.20
2023-04-28T09:49:42.367Z,98929.20
2023-04-28T09:52:40.175Z,98917.00
2023-04-28T09:55:37.823Z,98913.60
2023-04-28T09:58:35.373Z,98911.40
2023-04-28T10:01:33.302Z,98904.40
2023-04-28T10:04:33.918Z,98893.80
2023-04-28T10:07:35.237Z,98894.40
2023-04-28T10:10:33.125Z,98894.80
2023-04-28T10:13:30.768Z,98888.80
2023-04-28T10:16:28.830Z,98884.60
2023-04-28T10:19:26.326Z,98888.20
2023-04-28T10:22:24.912Z,98888.60
2023-04-28T10:25:23.260Z,98888.40
2023-04-28T10:28:20.824Z,98881.20
2023-04-28T10:31:19.045Z,98883.00
2023-04-28T10:34:16.523Z,98876.80
2023-04-28T10:37:16.190Z,98871.60
2023-04-28T10:40:13.723Z,98864.00
2023-04-28T10:43:11.618Z,98865.00
2023-04-28T10:46:09.113Z,98865.00
2023-04-28T10:49:08.399Z,98856.00
2023-04-28T10:52:06.570Z,98860.40
2023-04-28T10:55:15.826Z,98855.20
2023-04-28T10:58:19.535Z,98854.20
2023-04-28T11:01:16.951Z,98851.00
2023-04-28T11:04:16.340Z,98841.40
2023-04-28T11:07:14.753Z,98842.60
2023-04-28T11:10:12.506Z,98838.40
2023-04-28T11:13:10.159Z,98845.40
2023-04-28T11:16:07.628Z,98842.20
2023-04-28T11:19:05.969Z,98832.60
2023-04-28T11:22:03.393Z,98824.80
2023-04-28T11:25:01.189Z,98811.60
2023-04-28T11:27:58.622Z,98812.80
2023-04-28T11:30:56.258Z,98811.60
2023-04-28T11:33:54.051Z,98808.80
2023-04-28T11:36:53.452Z,98814.40
2023-04-28T11:39:52.414Z,98803.80
2023-04-28T11:42:49.778Z,98794.00
2023-04-28T11:45:47.508Z,98794.60
2023-04-28T11:48:44.957Z,98792.60
2023-04-28T11:51:43.731Z,98792.40
2023-04-28T11:54:43.801Z,98794.60
2023-04-28T11:57:41.232Z,98793.60
2023-04-28T12:00:38.917Z,98789.60
2023-04-28T12:03:36.602Z,98787.00
2023-04-28T12:06:35.512Z,98790.20
2023-04-28T12:09:32.924Z,98797.00
2023-04-28T12:12:40.575Z,98790.80
2023-04-28T12:15:43.263Z,98794.40
2023-04-28T12:18:41.236Z,98805.40
2023-04-28T12:21:38.954Z,98807.60
2023-04-28T12:24:37.379Z,98816.40
2023-04-28T12:27:35.763Z,98822.80
2023-04-28T12:30:35.473Z,98824.20
2023-04-28T12:33:34.181Z,98834.20
2023-04-28T12:36:31.974Z,98835.00
2023-04-28T12:39:29.392Z,98835.40
2023-04-28T12:42:27.458Z,98837.20
2023-04-28T12:45:24.868Z,98837.00
2023-04-28T12:48:24.317Z,98831.40
2023-04-28T12:51:22.055Z,98833.80
2023-04-28T12:54:19.952Z,98829.80
2023-04-28T12:57:17.530Z,98825.40
2023-04-28T13:00:16.941Z,98825.20
2023-04-28T13:03:15.946Z,98825.00
2023-04-28T13:06:14.012Z,98819.40
2023-04-28T13:09:11.394Z,98819.40
2023-04-28T13:12:11.843Z,98816.80
2023-04-28T13:15:09.258Z,98821.40
2023-04-28T13:18:07.206Z,98814.00
2023-04-28T13:21:05.730Z,98810.60
2023-04-28T13:24:04.062Z,98812.80
2023-04-28T13:27:02.293Z,98814.20
2023-04-28T13:30:00.452Z,98813.60
2023-04-28T13:32:57.895Z,98809.60
2023-04-28T13:35:56.034Z,98812.20
2023-04-28T13:38:53.444Z,98815.80
2023-04-28T13:41:51.321Z,98809.60
2023-04-28T13:44:49.420Z,98811.20
2023-04-28T13:47:47.291Z,98810.40
2023-04-28T13:50:44.696Z,98800.00
2023-04-28T13:53:42.585Z,98793.80
2023-04-28T13:56:40.071Z,98798.00
2023-04-28T13:59:37.919Z,98794.20
2023-04-28T14:02:38.250Z,98798.40
2023-04-28T14:05:48.410Z,98797.40
2023-04-28T14:08:47.074Z,98791.00
2023-04-28T14:11:45.187Z,98790.40
2023-04-28T14:14:42.846Z,98797.00
2023-04-28T14:17:40.843Z,98796.80
2023-04-28T14:20:38.264Z,98793.60
2023-04-28T14:23:37.038Z,98787.40
2023-04-28T14:26:34.755Z,98781.40
2023-04-28T14:29:33.181Z,98787.80
2023-04-28T14:32:30.620Z,98797.80
2023-04-28T14:35:29.097Z,98796.80
2023-04-28T14:38:26.473Z,98791.60
2023-04-28T14:41:24.377Z,98799.20
2023-04-28T14:44:21.810Z,98791.80
2023-04-28T14:47:19.928Z,98797.60
2023-04-28T14:50:18.983Z,98788.60
2023-04-28T14:53:16.411Z,98780.60
2023-04-28T14:56:18.984Z,98779.40
2023-04-28T14:59:18.768Z,98771.40
2023-04-28T15:02:16.715Z,98770.60
2023-04-28T15:05:14.155Z,98762.00
2023-04-28T15:08:12.494Z,98748.60
2023-04-28T15:11:10.257Z,98730.60
2023-04-28T15:14:08.152Z,98713.00
2023-04-28T15:17:05.527Z,98703.80
2023-04-28T15:20:03.436Z,98726.60
2023-04-28T15:23:00.816Z,98754.20
2023-04-28T15:25:58.663Z,98764.80
2023-04-28T15:28:56.735Z,98774.60
2023-04-28T15:31:54.142Z,98766.20
2023-04-28T15:34:52.291Z,98774.80
2023-04-28T15:37:52.384Z,98770.00
2023-04-28T15:40:49.971Z,98754.80
2023-04-28T15:43:48.245Z,98751.80
2023-04-28T15:46:46.203Z,98756.40
2023-04-28T15:49:44.244Z,98753.80
2023-04-28T15:52:45.934Z,98745.40
2023-04-28T15:55:44.935Z,98734.00
2023-04-28T15:58:44.249Z,98733.20
2023-04-28T16:01:41.722Z,98741.20
2023-04-28T16:04:39.775Z,98736.60
2023-04-28T16:07:41.115Z,98745.80
2023-04-28T16:10:41.645Z,98745.40
2023-04-28T16:13:39.727Z,98754.60
2023-04-28T16:16:37.691Z,98748.80
2023-04-28T16:19:35.580Z,98750.00
2023-04-28T16:22:33.395Z,98755.40
2023-04-28T16:25:30.854Z,98757.60
2023-04-28T16:28:28.671Z,98754.60
2023-04-28T16:31:26.555Z,98751.20
2023-04-28T16:34:24.650Z,98748.40
2023-04-28T16:37:22.150Z,98740.80
2023-04-28T16:40:20.761Z,98737.80
2023-04-28T16:43:18.587Z,98733.00
2023-04-28T16:46:17.539Z,98735.40
2023-04-28T16:49:14.976Z,98731.60
2023-04-28T16:52:12.758Z,98735.60
2023-04-28T16:55:10.536Z,98735.20
2023-04-28T16:58:08.389Z,98730.60
2023-04-28T17:01:05.862Z,98722.00
2023-04-28T17:04:07.410Z,98727.60
2023-04-28T17:07:05.598Z,98733.20
2023-04-28T17:10:03.450Z,98744.20
2023-04-28T17:13:01.007Z,98746.40
2023-04-28T17:15:59.206Z,98735.20
2023-04-28T17:18:56.607Z,98733.40
2023-04-28T17:21:56.260Z,98725.00
2023-04-28T17:24:53.700Z,98725.00
2023-04-28T17:27:51.584Z,98722.80
2023-04-28T17:30:49.368Z,98727.20
2023-04-28T17:33:46.841Z,98726.00
2023-04-28T17:36:45.940Z,98717.00
2023-04-28T17:39:43.338Z,98708.00
2023-04-28T17:42:41.237Z,98722.60
2023-04-28T17:45:38.941Z,98727.00
2023-04-28T17:48:36.975Z,98721.20
2023-04-28T17:51:35.093Z,98720.00
2023-04-28T17:54:34.007Z,98716.40
2023-04-28T17:57:32.629Z,98711.40
2023-04-28T18:00:29.997Z,98700.20
2023-04-28T18:03:27.949Z,98705.40
2023-04-28T18:06:25.689Z,98711.00
2023-04-28T18:09:23.542Z,98713.80
2023-04-28T18:12:21.307Z,98708.20
2023-04-28T18:15:19.231Z,98698.00
2023-04-28T18:18:17.069Z,98694.20
2023-04-28T18:21:15.090Z,98686.20
2023-04-28T18:24:13.069Z,98687.00
2023-04-28T18:27:10.674Z,98698.80
2023-04-28T18:30:10.496Z,98696.60
2023-04-28T18:33:08.922Z,98695.80
2023-04-28T18:36:08.126Z,98695.60
2023-04-28T18:39:10.194Z,98691.20
2023-04-28T18:42:08.265Z,98693.80
2023-04-28T18:45:07.060Z,98695.80
2023-04-28T18:48:07.101Z,98682.60
2023-04-28T18:51:06.341Z,98681.20
2023-04-28T18:54:06.440Z,98690.20
2023-04-28T18:57:04.866Z,98694.00
2023-04-28T19:00:03.477Z,98697.20
2023-04-28T19:03:02.776Z,98693.00
2023-04-28T19:06:00.956Z,98685.80
2023-04-28T19:08:58.707Z,98687.20
2023-04-28T19:11:58.127Z,98691.60
2023-04-28T19:14:55.962Z,98707.00
2023-04-28T19:17:54.727Z,98711.00
2023-04-28T19:20:52.447Z,98708.00
2023-04-28T19:23:51.419Z,98713.20
2023-04-28T19:26:49.581Z,98701.80
2023-04-28T19:29:47.854Z,98694.40
2023-04-28T19:32:46.124Z,98692.60
2023-04-28T19:35:45.269Z,98689.20
2023-04-28T19:38:46.845Z,98681.20
2023-04-28T19:41:45.321Z,98683.60
2023-04-28T19:44:43.937Z,98691.80
2023-04-28T19:47:42.131Z,98690.20
2023-04-28T19:50:40.934Z,98689.40
2023-04-28T19:53:41.184Z,98693.00
2023-04-28T19:56:39.606Z,98693.80
2023-04-28T19:59:37.514Z,98691.20
2023-04-28T20:02:36.095Z,98687.80
2023-04-28T20:05:34.729Z,98681.60
2023-04-28T20:08:33.598Z,98685.40
2023-04-28T20:11:31.882Z,98678.00
2023-04-28T20:14:30.286Z,98680.00
2023-04-28T20:17:28.440Z,98676.60
2023-04-28T20:20:26.950Z,98679.40
2023-04-28T20:23:24.677Z,98679.60
2023-04-28T20:26:23.300Z,98682.60
2023-04-28T20:29:21.683Z,98678.40
2023-04-28T20:32:19.656Z,98682.80
2023-04-28T20:35:17.645Z,98684.60
2023-04-28T20:38:15.430Z,98678.60
2023-04-28T20:41:12.919Z,98678.80
2023-04-28T20:44:10.710Z,98669.40
2023-04-28T20:47:08.202Z,98670.60
2023-04-28T20:50:06.960Z,98676.40
2023-04-28T20:53:04.513Z,98676.80
2023-04-28T20:56:01.996Z,98676.00
2023-04-28T20:58:59.649Z,98676.00
2023-04-28T21:01:57.091Z,98677.20
2023-04-28T21:04:55.307Z,98676.20
2023-04-28T21:07:52.807Z,98674.60
2023-04-28T21:10:50.388Z,98682.00
2023-04-28T21:13:48.490Z,98678.20
2023-04-28T21:16:46.064Z,98676.00
2023-04-28T21:19:43.795Z,98676.40
2023-04-28T21:22:41.346Z,98668.60
2023-04-28T21:25:39.048Z,98664.40
2023-04-28T21:28:36.692Z,98660.80
2023-04-28T21:31:34.382Z,98657.40
2023-04-28T21:34:32.857Z,98650.20
2023-04-28T21:37:30.237Z,98651.00
2023-04-28T21:40:27.988Z,98650.60
2023-04-28T21:43:25.400Z,98650.20
2023-04-28T21:46:23.011Z,98654.40
2023-04-28T21:49:20.680Z,98655.80
2023-04-28T21:52:18.118Z,98659.00
2023-04-28T21:55:15.703Z,98661.00
2023-04-28T21:58:13.292Z,98660.60
2023-04-28T22:01:11.027Z,98661.00
2023-04-28T22:04:08.786Z,98661.20
2023-04-28T22:07:06.694Z,98659.20
2023-04-28T22:10:04.103Z,98662.60
2023-04-28T22:13:01.731Z,98662.60
2023-04-28T22:15:59.479Z,98667.40
2023-04-28T22:18:57.001Z,98662.60
2023-04-28T22:21:54.673Z,98656.00
2023-04-28T22:24:52.448Z,98655.60
2023-04-28T22:27:50.116Z,98653.60
2023-04-28T22:30:47.885Z,98653.00
2023-04-28T22:33:45.535Z,98657.40
2023-04-28T22:36:42.963Z,98649.60
2023-04-28T22:39:40.533Z,98652.20
2023-04-28T22:42:38.248Z,98651.40
2023-04-28T22:45:35.881Z,98650.40
2023-04-28T22:48:33.749Z,98651.00
2023-04-28T22:51:31.544Z,98646.40
2023-04-28T22:54:29.121Z,98646.60
2023-04-28T22:57:26.505Z,98649.80
2023-04-28T23:00:24.119Z,98644.00
2023-04-28T23:03:23.011Z,98645.60
2023-04-28T23:06:20.597Z,98645.00
2023-04-28T23:09:18.196Z,98643.80
2023-04-28T23:12:15.674Z,98639.00
2023-04-28T23:15:13.466Z,98642.20
2023-04-28T23:18:10.862Z,98639.40
2023-04-28T23:21:08.560Z,98631.00
2023-04-28T23:24:05.940Z,98627.60
2023-04-28T23:27:04.112Z,98629.80
2023-04-28T23:30:01.812Z,98628.40
2023-04-28T23:32:59.354Z,98624.20
2023-04-28T23:35:57.116Z,98620.40
2023-04-28T23:38:54.470Z,98618.00
2023-04-28T23:41:52.442Z,98617.20
2023-04-28T23:44:50.418Z,98610.80
2023-04-28T23:47:48.312Z,98609.80
2023-04-28T23:50:46.236Z,98604.60
2023-04-28T23:53:43.668Z,98601.20
2023-04-28T23:56:41.248Z,98602.60
2023-04-28T23:59:38.632Z,98602.00
